createdAt,value
2019-02-25T21:16:41.001Z,24.50
2019-02-25T21:19:10.820Z,19.90
2019-02-25T21:21:39.609Z,19.90
2019-02-25T21:24:08.937Z,22.10
2019-02-25T21:26:38.766Z,20.90
2019-02-25T21:29:09.717Z,20.20
2019-02-25T21:31:42.783Z,19.70
2019-02-25T21:34:08.914Z,19.50
2019-02-25T21:36:38.569Z,19.40
2019-02-25T21:39:10.052Z,19.30
2019-02-25T21:41:41.249Z,19.30
2019-02-25T21:44:14.248Z,19.20
2019-02-25T21:46:40.034Z,19.20
2019-02-25T21:49:08.576Z,19.20
2019-02-25T21:51:39.153Z,19.10
2019-02-25T21:54:08.907Z,19.20
2019-02-25T21:56:37.586Z,19.20
2019-02-25T21:59:06.589Z,19.10
2019-02-25T22:01:37.381Z,19.20
2019-02-25T22:04:09.220Z,19.20
2019-02-25T22:06:36.951Z,19.20
2019-02-25T22:09:06.486Z,19.10
2019-02-25T22:11:35.296Z,19.00
2019-02-25T22:14:03.912Z,18.90
2019-02-25T22:16:32.501Z,18.80
2019-02-25T22:19:01.598Z,18.80
2019-02-25T22:21:30.182Z,18.70
2019-02-25T22:24:50.436Z,18.70
2019-02-25T22:27:20.636Z,19.00
2019-02-25T22:29:49.796Z,19.00
2019-02-25T22:33:34.874Z,19.70
2019-02-25T22:36:03.358Z,19.60
2019-02-25T22:38:31.839Z,19.70
2019-02-25T22:41:02.182Z,19.50
2019-02-25T22:43:30.879Z,19.30
2019-02-25T22:46:00.262Z,19.20
2019-02-25T22:48:29.816Z,19.10
2019-02-25T22:51:00.041Z,19.10
2019-02-25T22:53:38.444Z,19.00
2019-02-25T22:56:11.517Z,19.00
2019-02-25T22:58:42.495Z,18.90
2019-02-25T23:01:16.616Z,18.90
2019-02-25T23:03:46.991Z,18.90
2019-02-25T23:06:18.079Z,18.90
